Time;durP1;ratioP1;P1;durP2;ratioP2;P2;SDS_P1;SDS_P2;PMS_P1;PMS_P2;Temp;Humidity;BMP_temperature;BMP_pressure;BME280_temperature;BME280_humidity;BME280_pressure;Samples;Min_cycle;Max_cycle;Signal;HPM_P1;HPM_P2
2022/08/26 00:01:45;;;;;;;12.18;7.18;;;;;;;20.39;52.29;100133.63;5017209;28;20037;-74
2022/08/26 00:04:12;;;;;;;12.40;7.65;;;;;;;20.42;52.21;100141.41;5033359;28;20045;-78
2022/08/26 00:06:38;;;;;;;15.27;7.70;;;;;;;20.35;52.22;100137.69;5033281;28;20056;-75
2022/08/26 00:09:04;;;;;;;14.23;7.53;;;;;;;20.29;52.35;100141.06;5033404;28;20049;-76
2022/08/26 00:11:31;;;;;;;12.57;7.70;;;;;;;20.23;52.20;100141.69;5016740;28;20561;-75
2022/08/26 00:13:57;;;;;;;18.95;8.23;;;;;;;20.22;52.41;100135.44;5033072;28;20072;-76
2022/08/26 00:16:24;;;;;;;10.30;7.88;;;;;;;20.22;52.64;100130.00;5033023;28;20048;-76
2022/08/26 00:18:50;;;;;;;16.75;8.15;;;;;;;20.25;52.23;100134.25;5016696;28;20038;-76
2022/08/26 00:21:16;;;;;;;13.23;7.63;;;;;;;20.26;52.32;100144.09;5033279;28;20064;-77
2022/08/26 00:23:42;;;;;;;19.30;8.05;;;;;;;20.24;52.33;100143.44;5016399;28;20501;-77
2022/08/26 00:26:08;;;;;;;16.27;7.95;;;;;;;20.22;52.74;100140.00;5016575;28;20151;-77
2022/08/26 00:28:34;;;;;;;10.95;7.93;;;;;;;20.26;52.39;100141.38;5033148;28;20124;-77
2022/08/26 00:31:00;;;;;;;13.93;7.88;;;;;;;20.21;52.68;100138.31;5032796;28;20088;-76
2022/08/26 00:33:26;;;;;;;15.73;8.57;;;;;;;20.13;52.68;100134.56;5032592;28;20037;-77
2022/08/26 00:35:52;;;;;;;15.60;8.30;;;;;;;20.10;52.95;100137.59;5016213;28;20492;-78
2022/08/26 00:38:20;;;;;;;16.30;8.25;;;;;;;20.07;52.95;100131.66;5015884;28;20466;-77
2022/08/26 00:40:50;;;;;;;12.45;8.15;;;;;;;20.08;52.89;100145.09;5033721;28;20041;-77
2022/08/26 00:43:16;;;;;;;18.73;7.82;;;;;;;20.07;52.91;100143.34;5032607;28;20148;-75
2022/08/26 00:46:02;;;;;;;14.02;8.05;;;;;;;20.05;52.85;100144.56;5033874;28;20056;-75
2022/08/26 00:48:31;;;;;;;10.70;8.18;;;;;;;20.00;52.85;100139.59;5016734;28;20037;-77
2022/08/26 00:51:05;;;;;;;15.00;8.80;;;;;;;19.95;53.15;100136.53;5016349;28;20049;-77
2022/08/26 00:53:35;;;;;;;18.33;8.63;;;;;;;19.94;53.20;100136.72;5014654;28;20037;-77
2022/08/26 00:56:07;;;;;;;12.50;8.85;;;;;;;19.89;53.12;100123.63;5033483;28;20041;-78
2022/08/26 00:58:35;;;;;;;18.60;8.57;;;;;;;19.97;53.15;100129.09;5015596;28;20046;-77
2022/08/26 01:01:01;;;;;;;15.88;8.25;;;;;;;19.89;53.36;100118.19;5032137;28;20137;-77
2022/08/26 01:03:30;;;;;;;19.48;8.52;;;;;;;19.93;53.37;100119.56;5015884;28;20041;-77
2022/08/26 01:05:59;;;;;;;12.82;8.48;;;;;;;19.98;53.64;100127.22;5015819;28;20045;-77
2022/08/26 01:08:24;;;;;;;14.60;8.47;;;;;;;19.97;53.73;100126.38;5033351;28;20068;-77
2022/08/26 01:10:51;;;;;;;13.95;8.45;;;;;;;19.87;53.87;100125.66;4999877;28;20473;-77
2022/08/26 01:13:18;;;;;;;21.90;9.15;;;;;;;19.81;53.85;100131.72;5031935;28;20045;-76
2022/08/26 01:15:52;;;;;;;17.85;8.77;;;;;;;19.86;54.00;100123.97;5031831;28;20033;-77
2022/08/26 01:18:18;;;;;;;20.13;9.63;;;;;;;19.79;54.11;100117.50;5015773;28;20049;-77
2022/08/26 01:20:44;;;;;;;17.95;8.63;;;;;;;19.89;54.39;100129.03;5015386;28;20048;-77
2022/08/26 01:23:11;;;;;;;13.23;8.60;;;;;;;19.81;54.16;100118.16;5015515;28;20049;-77
2022/08/26 01:25:41;;;;;;;17.02;9.07;;;;;;;19.92;54.38;100134.16;4999225;28;20041;-77
2022/08/26 01:28:15;;;;;;;18.17;9.13;;;;;;;19.94;54.14;100137.56;5015650;28;20132;-77
2022/08/26 01:30:43;;;;;;;21.30;8.75;;;;;;;19.96;54.08;100140.94;5032011;28;20582;-77
2022/08/26 01:33:14;;;;;;;18.13;10.10;;;;;;;19.94;54.23;100124.00;5015318;28;20053;-76
2022/08/26 01:35:41;;;;;;;12.48;8.85;;;;;;;20.06;54.09;100141.66;5031877;28;20049;-78
2022/08/26 01:38:09;;;;;;;17.83;9.23;;;;;;;20.08;53.75;100131.50;5032469;28;20123;-77
2022/08/26 01:40:38;;;;;;;14.55;8.70;;;;;;;20.12;53.76;100130.16;5032615;28;20069;-78
2022/08/26 01:43:07;;;;;;;14.65;9.43;;;;;;;20.18;53.77;100139.50;5032065;28;20115;-78
2022/08/26 01:45:35;;;;;;;17.02;9.68;;;;;;;20.17;53.65;100140.53;5032773;28;20050;-77
2022/08/26 01:48:10;;;;;;;22.02;9.48;;;;;;;20.00;54.11;100126.03;5031494;28;20107;-77
2022/08/26 01:50:37;;;;;;;13.13;9.38;;;;;;;19.89;54.35;100140.75;5032005;28;20528;-78
2022/08/26 01:53:08;;;;;;;21.48;10.00;;;;;;;19.74;54.94;100133.38;5015179;28;20103;-78
2022/08/26 01:55:36;;;;;;;20.95;11.80;;;;;;;19.56;55.44;100139.72;5031904;28;20100;-78
2022/08/26 01:58:07;;;;;;;22.30;13.80;;;;;;;19.44;55.70;100129.31;5015159;28;20045;-78
2022/08/26 02:00:34;;;;;;;23.90;17.35;;;;;;;19.39;56.33;100148.78;5015562;28;20045;-78
2022/08/26 02:03:16;;;;;;;27.38;16.77;;;;;;;19.23;56.49;100127.84;5033204;28;20080;-77
2022/08/26 02:05:45;;;;;;;33.20;22.70;;;;;;;19.40;56.25;100155.88;5036364;28;20056;-77
2022/08/26 02:08:12;;;;;;;;;;;;;;;19.53;55.92;100147.34;5036306;28;20124;-77
2022/08/26 02:10:38;;;;;;;32.83;23.88;;;;;;;19.48;56.13;100147.78;5035515;28;20012;-76
2022/08/26 02:13:07;;;;;;;40.28;21.75;;;;;;;19.56;55.88;100156.00;5002601;28;20080;-77
2022/08/26 02:15:33;;;;;;;23.83;20.48;;;;;;;19.51;56.15;100146.63;5036694;28;20060;-78
2022/08/26 02:18:01;;;;;;;33.22;20.13;;;;;;;19.56;56.26;100147.88;5036463;28;20061;-77
2022/08/26 02:20:28;;;;;;;28.73;19.02;;;;;;;19.67;56.00;100156.75;5002557;28;20037;-78
2022/08/26 02:22:54;;;;;;;25.02;19.10;;;;;;;19.67;56.14;100151.31;5036771;28;20045;-77
2022/08/26 02:25:27;;;;;;;30.45;19.50;;;;;;;19.72;56.33;100154.41;5037634;28;20072;-76
2022/08/26 02:27:55;;;;;;;30.70;20.40;;;;;;;19.79;56.02;100160.91;5037228;28;20184;-77
2022/08/26 02:30:29;;;;;;;36.13;17.90;;;;;;;19.91;55.91;100167.72;5019879;28;20050;-77
2022/08/26 02:32:58;;;;;;;25.55;17.45;;;;;;;19.92;55.38;100164.00;5039638;28;20045;-78
2022/08/26 02:35:24;;;;;;;29.80;19.10;;;;;;;19.95;55.64;100163.66;5002328;28;20091;-76
2022/08/26 02:37:51;;;;;;;31.48;18.00;;;;;;;20.03;55.95;100168.28;5018840;28;20508;-77
2022/08/26 02:40:21;;;;;;;39.25;17.63;;;;;;;20.09;55.75;100167.63;5034905;28;20450;-76
2022/08/26 02:42:47;;;;;;;39.15;18.33;;;;;;;20.11;55.97;100169.16;5018719;28;20037;-77
2022/08/26 02:45:13;;;;;;;46.47;16.75;;;;;;;20.11;55.66;100165.59;5036870;28;20057;-78
2022/08/26 02:47:38;;;;;;;34.95;16.50;;;;;;;20.19;55.58;100165.63;5018625;28;20056;-79
2022/08/26 02:50:06;;;;;;;31.67;17.58;;;;;;;20.26;55.24;100180.22;5034928;28;20515;-77
2022/08/26 02:52:32;;;;;;;34.03;19.10;;;;;;;20.28;55.18;100155.66;5017732;28;20131;-77
2022/08/26 02:54:57;;;;;;;38.53;21.00;;;;;;;20.38;55.32;100173.50;5034866;28;20187;-81
2022/08/26 02:57:23;;;;;;;37.22;23.70;;;;;;;20.31;55.15;100161.59;5034459;28;20046;-79
2022/08/26 02:59:49;;;;;;;42.80;26.20;;;;;;;20.44;54.98;100171.97;5034854;28;20038;-77
2022/08/26 03:02:16;;;;;;;45.88;30.50;;;;;;;20.49;54.79;100164.19;5034696;28;20072;-78
2022/08/26 03:04:41;;;;;;;48.67;32.30;;;;;;;20.65;54.84;100167.97;5003249;28;20048;-79
2022/08/26 03:07:07;;;;;;;54.17;32.38;;;;;;;20.75;54.39;100174.09;5019301;28;20041;-77
2022/08/26 03:09:33;;;;;;;45.55;29.80;;;;;;;20.88;54.30;100176.34;5038255;28;20511;-78
2022/08/26 03:12:00;;;;;;;43.88;29.42;;;;;;;21.01;54.19;100174.78;5037952;28;20056;-77
2022/08/26 03:14:26;;;;;;;36.95;24.75;;;;;;;21.07;53.88;100174.13;5017439;28;20063;-83
2022/08/26 03:16:53;;;;;;;39.70;23.55;;;;;;;21.09;54.07;100176.66;5033483;28;20049;-77
2022/08/26 03:19:21;;;;;;;30.63;18.77;;;;;;;21.05;54.00;100176.13;5035391;28;20046;-89
2022/08/26 03:21:46;;;;;;;38.13;16.05;;;;;;;20.98;54.27;100180.56;5034066;28;20100;-75
2022/08/26 03:24:13;;;;;;;23.25;15.02;;;;;;;21.03;54.01;100180.06;5035165;28;20492;-75
2022/08/26 03:26:39;;;;;;;31.48;14.43;;;;;;;21.06;53.94;100172.44;5033925;28;20501;-76
2022/08/26 03:31:50;;;;;;;23.90;12.88;;;;;;;20.93;53.96;100177.50;5033807;28;20132;-76
2022/08/26 03:34:17;;;;;;;28.55;12.48;;;;;;;20.90;54.06;100175.13;5033903;28;20064;-76
2022/08/26 03:36:43;;;;;;;32.13;13.07;;;;;;;21.01;54.02;100168.50;5033407;28;20569;-77
2022/08/26 03:39:10;;;;;;;22.73;13.75;;;;;;;21.08;53.68;100181.25;5016889;28;20148;-78
2022/08/26 03:41:36;;;;;;;26.73;13.68;;;;;;;21.22;53.38;100178.88;5033490;28;20042;-76
2022/08/26 03:44:04;;;;;;;30.33;15.18;;;;;;;21.21;53.21;100172.59;5017028;28;20048;-78
2022/08/26 03:46:32;;;;;;;26.95;14.55;;;;;;;21.34;52.96;100188.41;5034575;28;20044;-76
2022/08/26 03:49:00;;;;;;;30.65;14.40;;;;;;;21.24;53.00;100168.66;5044575;28;20044;-76
2022/08/26 03:51:25;;;;;;;33.78;15.73;;;;;;;21.47;52.71;100191.44;5033467;28;20037;-76
2022/08/26 03:53:51;;;;;;;25.02;14.15;;;;;;;21.50;52.65;100184.81;5033457;28;20455;-75
2022/08/26 03:56:17;;;;;;;29.92;14.70;;;;;;;21.58;52.51;100187.50;5016636;28;20041;-75
2022/08/26 03:58:44;;;;;;;29.77;15.02;;;;;;;21.61;52.50;100187.16;5033354;28;20041;-75
2022/08/26 04:01:11;;;;;;;29.23;14.10;;;;;;;21.50;52.86;100188.38;5032488;28;20053;-75
2022/08/26 04:06:37;;;;;;;38.25;12.95;;;;;;;21.48;53.43;100193.16;5033004;28;20041;-76
2022/08/26 04:09:07;;;;;;;26.73;13.10;;;;;;;21.63;53.14;100176.97;5000293;28;20037;-75
2022/08/26 04:11:35;;;;;;;32.00;12.48;;;;;;;21.96;52.92;100191.28;5034069;28;20041;-76
2022/08/26 04:14:04;;;;;;;31.73;11.75;;;;;;;22.19;52.21;100196.00;5034593;28;20484;-75
2022/08/26 04:16:30;;;;;;;29.27;12.00;;;;;;;22.17;52.48;100184.47;5032847;28;20542;-75
2022/08/26 04:18:57;;;;;;;25.38;10.90;;;;;;;22.38;52.32;100192.88;5015798;28;20501;-76
2022/08/26 04:21:25;;;;;;;20.70;11.90;;;;;;;22.60;51.36;100190.34;5032962;28;20049;-75
2022/08/26 04:23:51;;;;;;;25.95;11.95;;;;;;;22.68;51.49;100187.56;5016357;28;20044;-75
2022/08/26 04:26:19;;;;;;;23.58;12.93;;;;;;;22.71;51.53;100179.03;4999994;28;20038;-75
2022/08/26 04:28:51;;;;;;;28.85;14.13;;;;;;;22.79;51.43;100192.59;5032487;28;20072;-75
2022/08/26 04:31:18;;;;;;;22.13;14.00;;;;;;;22.74;51.99;100189.56;5016304;28;20049;-76
2022/08/26 04:33:46;;;;;;;32.90;13.40;;;;;;;22.98;51.67;100196.75;5032307;28;20065;-76
2022/08/26 04:36:16;;;;;;;27.23;13.68;;;;;;;23.14;51.34;100193.06;5032614;28;20512;-76
2022/08/26 04:38:44;;;;;;;34.22;14.20;;;;;;;23.33;50.98;100195.28;5016163;28;20417;-75
2022/08/26 04:41:11;;;;;;;35.53;14.80;;;;;;;23.49;51.13;100189.66;4999382;28;20045;-75
2022/08/26 04:43:37;;;;;;;31.20;14.52;;;;;;;23.80;50.53;100193.28;5032694;28;20503;-76
2022/08/26 04:46:04;;;;;;;41.80;14.73;;;;;;;23.94;50.04;100192.44;5032229;28;20061;-76
2022/08/26 04:48:31;;;;;;;47.30;15.32;;;;;;;23.94;49.93;100187.81;5034564;28;20439;-76
2022/08/26 04:50:58;;;;;;;41.30;14.52;;;;;;;23.97;49.99;100189.34;5015624;28;20046;-76
2022/08/26 04:53:25;;;;;;;49.08;16.25;;;;;;;24.00;50.08;100194.44;5033058;28;20034;-75
2022/08/26 04:55:51;;;;;;;38.75;14.68;;;;;;;24.04;49.99;100175.78;5032291;28;20085;-76
2022/08/26 04:58:20;;;;;;;54.28;16.65;;;;;;;24.24;49.65;100198.72;5033267;28;20081;-76
2022/08/26 05:00:48;;;;;;;54.80;17.67;;;;;;;24.42;49.14;100196.47;5033049;28;20519;-75
2022/08/26 05:03:16;;;;;;;43.08;15.23;;;;;;;24.69;48.95;100188.56;5015522;28;20528;-77
2022/08/26 05:05:45;;;;;;;51.00;15.77;;;;;;;25.04;48.30;100194.16;5015529;28;20048;-76
2022/08/26 05:08:13;;;;;;;62.92;18.95;;;;;;;25.27;47.54;100196.72;5031225;28;20045;-77
2022/08/26 05:10:41;;;;;;;50.60;15.88;;;;;;;25.47;47.26;100183.22;5013811;28;20060;-76
2022/08/26 05:13:08;;;;;;;68.77;19.03;;;;;;;25.62;46.90;100197.63;5030262;28;20049;-76
2022/08/26 05:15:35;;;;;;;79.60;19.08;;;;;;;25.70;46.06;100200.22;5032814;28;20052;-76
2022/08/26 05:18:03;;;;;;;69.13;17.50;;;;;;;25.77;46.38;100192.91;5032192;28;20037;-76
2022/08/26 05:20:31;;;;;;;74.25;16.98;;;;;;;25.96;46.08;100205.03;5031933;28;20414;-76
2022/08/26 05:22:59;;;;;;;74.63;18.08;;;;;;;25.95;46.00;100202.50;5015229;28;20045;-77
2022/08/26 05:25:26;;;;;;;;;;;;;;;26.08;45.79;100205.31;5032517;28;20049;-76
2022/08/26 05:27:52;;;;;;;59.38;17.90;;;;;;;26.18;45.46;100200.31;5014821;28;20019;-76
2022/08/26 05:30:18;;;;;;;71.60;16.02;;;;;;;26.38;45.30;100198.50;5015189;28;20085;-76
2022/08/26 05:32:47;;;;;;;90.55;20.83;;;;;;;26.62;44.62;100202.59;5031308;28;20045;-76
2022/08/26 05:35:14;;;;;;;101.85;20.48;;;;;;;26.36;44.38;100194.25;5014928;28;20034;-76
2022/08/26 05:37:42;;;;;;;96.43;22.85;;;;;;;26.18;44.80;100194.84;5015319;28;20523;-75
2022/08/26 05:40:09;;;;;;;86.57;21.05;;;;;;;26.29;45.28;100194.25;5030846;28;20103;-75
2022/08/26 05:42:37;;;;;;;;;;;;;;;26.49;44.70;100205.31;5032045;28;20041;-76
2022/08/26 05:45:03;;;;;;;86.72;21.02;;;;;;;26.62;44.52;100199.03;5033263;28;19967;-75
2022/08/26 05:47:29;;;;;;;59.13;20.10;;;;;;;26.72;43.78;100199.47;5032569;28;20072;-75
2022/08/26 05:49:55;;;;;;;76.35;19.33;;;;;;;26.80;43.95;100192.97;5015015;28;20488;-75
2022/08/26 05:52:21;;;;;;;81.43;19.70;;;;;;;26.87;43.53;100175.47;5032452;28;20049;-76
2022/08/26 05:54:48;;;;;;;62.30;17.73;;;;;;;27.02;43.24;100193.63;5032056;28;20053;-75
2022/08/26 05:57:14;;;;;;;67.18;17.42;;;;;;;27.08;43.02;100193.66;5030971;28;20060;-76
2022/08/26 05:59:40;;;;;;;54.33;16.55;;;;;;;27.28;42.70;100182.69;5031215;28;20045;-75
2022/08/26 06:02:06;;;;;;;79.00;18.25;;;;;;;27.34;42.26;100184.59;5031413;28;20107;-75
2022/08/26 06:04:32;;;;;;;63.20;16.55;;;;;;;27.14;42.30;100197.47;5032647;28;20516;-77
2022/08/26 06:06:58;;;;;;;53.33;14.02;;;;;;;27.11;42.41;100201.47;5032451;28;20045;-76
2022/08/26 06:09:24;;;;;;;55.95;15.80;;;;;;;27.30;41.94;100187.97;5031075;28;20124;-76
2022/08/26 06:11:50;;;;;;;40.92;13.55;;;;;;;27.27;41.83;100194.75;5031011;28;20061;-76
2022/08/26 06:14:16;;;;;;;48.75;13.95;;;;;;;27.30;41.70;100188.81;5031129;28;20038;-75
2022/08/26 06:16:45;;;;;;;49.20;12.55;;;;;;;27.48;41.93;100192.81;5034043;28;20107;-76
2022/08/26 06:19:13;;;;;;;35.25;12.90;;;;;;;27.39;41.86;100183.97;5034352;28;20045;-76
2022/08/26 06:21:43;;;;;;;42.10;13.60;;;;;;;27.58;41.53;100198.72;5034569;28;20080;-76
2022/08/26 06:27:03;;;;;;;36.95;13.65;;;;;;;27.78;40.66;100187.75;5034636;28;20053;-76
2022/08/26 06:29:32;;;;;;;28.33;10.90;;;;;;;27.94;40.61;100186.44;5032328;28;20069;-76
2022/08/26 06:31:59;;;;;;;39.72;11.85;;;;;;;27.96;40.61;100184.31;4999078;28;20053;-76
2022/08/26 06:34:27;;;;;;;30.05;11.70;;;;;;;28.36;40.12;100176.78;4999574;28;20061;-76
2022/08/26 06:36:54;;;;;;;19.90;10.70;;;;;;;28.66;39.49;100188.06;5032336;28;20132;-76
2022/08/26 06:39:20;;;;;;;29.83;10.63;;;;;;;28.77;38.81;100175.50;5032387;28;20049;-75
2022/08/26 06:41:46;;;;;;;24.88;11.02;;;;;;;28.82;38.95;100183.94;5015414;28;20041;-76
2022/08/26 06:44:17;;;;;;;27.45;10.27;;;;;;;29.01;38.40;100177.50;5031101;28;20136;-76
2022/08/26 06:46:43;;;;;;;32.88;10.13;;;;;;;28.92;38.62;100177.94;4998093;28;20097;-75
2022/08/26 06:49:11;;;;;;;26.55;10.35;;;;;;;29.05;38.15;100186.16;5032084;28;20037;-76
2022/08/26 06:51:38;;;;;;;25.55;9.73;;;;;;;28.84;37.70;100187.31;5033339;28;20131;-77
2022/08/26 06:54:06;;;;;;;20.55;9.70;;;;;;;28.96;37.81;100177.31;5034142;28;20053;-76
2022/08/26 06:56:36;;;;;;;22.90;9.18;;;;;;;29.03;37.13;100161.56;5018098;28;20044;-76
2022/08/26 06:59:03;;;;;;;22.75;8.93;;;;;;;29.09;37.26;100172.78;5001563;28;20090;-75
2022/08/26 07:01:33;;;;;;;25.08;9.32;;;;;;;29.41;37.09;100170.81;5017833;28;20443;-76
2022/08/26 07:04:02;;;;;;;24.08;8.57;;;;;;;29.79;36.65;100172.56;5035529;28;20038;-76
2022/08/26 07:06:29;;;;;;;37.72;9.20;;;;;;;30.10;35.67;100175.19;5035409;28;20530;-76
2022/08/26 07:09:03;;;;;;;21.40;9.02;;;;;;;29.97;34.94;100175.34;5001429;28;20045;-76
2022/08/26 07:11:31;;;;;;;24.10;8.77;;;;;;;30.06;34.09;100179.50;5034124;28;20119;-77
2022/08/26 07:13:58;;;;;;;31.75;9.73;;;;;;;29.86;34.56;100165.06;5034435;28;20053;-77
2022/08/26 07:16:26;;;;;;;22.30;8.63;;;;;;;29.90;35.06;100163.53;5017460;28;20512;-76
2022/08/26 07:18:53;;;;;;;19.67;8.32;;;;;;;30.39;34.02;100161.69;5001362;28;20042;-77
2022/08/26 07:21:21;;;;;;;31.65;8.75;;;;;;;30.55;33.11;100154.72;5035195;28;20049;-77
2022/08/26 07:23:50;;;;;;;30.58;8.80;;;;;;;30.51;32.46;100162.63;5001895;28;20050;-76
2022/08/26 07:26:24;;;;;;;30.17;9.02;;;;;;;30.55;32.31;100163.81;5000928;28;20508;-76
2022/08/26 07:28:54;;;;;;;22.27;7.97;;;;;;;30.84;32.00;100156.66;5017200;28;20041;-76
2022/08/26 07:31:23;;;;;;;24.17;8.07;;;;;;;31.06;32.04;100145.88;5033598;28;20045;-76
2022/08/26 07:33:50;;;;;;;23.02;8.45;;;;;;;31.46;31.59;100147.97;5033909;28;20511;-76
2022/08/26 07:36:17;;;;;;;30.27;8.88;;;;;;;31.62;30.46;100143.66;5034966;28;20044;-76
2022/08/26 07:38:44;;;;;;;24.58;9.15;;;;;;;31.40;30.13;100148.94;5034936;28;20085;-76
2022/08/26 07:41:12;;;;;;;20.38;8.10;;;;;;;31.20;30.29;100158.38;5017625;28;20068;-76
2022/08/26 07:43:39;;;;;;;27.58;8.68;;;;;;;31.21;29.79;100151.75;5034988;28;20037;-76
2022/08/26 07:46:05;;;;;;;16.35;8.00;;;;;;;31.02;29.57;100144.66;5017005;28;20057;-77
2022/08/26 07:48:32;;;;;;;24.23;8.85;;;;;;;31.18;29.99;100151.41;5017053;28;20056;-76
2022/08/26 07:50:59;;;;;;;21.85;7.95;;;;;;;31.05;29.71;100148.88;5000797;28;20044;-77
2022/08/26 07:53:25;;;;;;;15.95;6.68;;;;;;;31.32;29.73;100149.28;5000314;28;20136;-78
2022/08/26 07:55:51;;;;;;;23.85;7.05;;;;;;;31.83;29.55;100147.72;5000612;28;20136;-76
2022/08/26 07:58:18;;;;;;;16.63;7.03;;;;;;;31.68;26.92;100140.75;5033103;28;20049;-76
2022/08/26 08:00:44;;;;;;;17.85;6.90;;;;;;;31.78;27.05;100153.13;5016939;28;20053;-77
2022/08/26 08:03:10;;;;;;;14.55;7.00;;;;;;;32.03;26.74;100150.09;5032597;28;20053;-77
2022/08/26 08:05:37;;;;;;;13.65;6.50;;;;;;;32.41;26.94;100146.78;5033381;28;20053;-76
2022/08/26 08:08:06;;;;;;;19.23;7.43;;;;;;;32.33;26.76;100139.66;5016666;28;20455;-76
2022/08/26 08:10:33;;;;;;;19.35;7.07;;;;;;;32.28;26.41;100136.81;5032834;28;20041;-76
2022/08/26 08:12:59;;;;;;;23.40;7.00;;;;;;;32.57;26.59;100137.69;5034488;28;20045;-75
2022/08/26 08:15:29;;;;;;;32.75;8.43;;;;;;;32.85;26.49;100119.34;5016445;28;20448;-76
2022/08/26 08:17:59;;;;;;;14.40;7.28;;;;;;;33.18;25.72;100135.19;5032968;28;20041;-76
2022/08/26 08:20:27;;;;;;;23.83;7.07;;;;;;;33.34;24.94;100134.31;5032547;28;20041;-76
2022/08/26 08:22:53;;;;;;;21.13;7.53;;;;;;;33.22;24.04;100130.81;4999691;28;20484;-77
2022/08/26 08:25:20;;;;;;;15.27;7.53;;;;;;;32.81;24.06;100135.63;5016028;28;20090;-77
2022/08/26 08:27:49;;;;;;;18.30;7.28;;;;;;;32.25;24.94;100114.34;5016307;28;20450;-77
2022/08/26 08:30:18;;;;;;;17.90;7.38;;;;;;;32.46;25.19;100130.28;5032714;28;20041;-76
2022/08/26 08:32:44;;;;;;;16.65;7.50;;;;;;;32.42;24.88;100126.31;5032334;28;20100;-76
2022/08/26 08:35:16;;;;;;;13.90;7.25;;;;;;;32.38;24.83;100125.94;4999492;28;20041;-76
2022/08/26 08:37:42;;;;;;;16.55;7.30;;;;;;;32.72;24.38;100114.13;5033600;28;20362;-76
2022/08/26 08:40:09;;;;;;;12.65;6.80;;;;;;;32.85;23.74;100116.59;5032236;28;20041;-76
2022/08/26 08:42:54;;;;;;;18.20;7.83;;;;;;;32.82;24.09;100112.38;5032479;28;20042;-77
2022/08/26 08:45:38;;;;;;;23.30;7.75;;;;;;;32.97;24.33;100117.38;4999663;28;20672;-77
2022/08/26 08:48:16;;;;;;;24.23;7.93;;;;;;;33.30;23.83;100108.22;4999592;28;20389;-76
2022/08/26 08:50:46;;;;;;;20.75;8.27;;;;;;;33.43;23.34;100112.53;5033557;28;20436;-77
2022/08/26 08:53:17;;;;;;;26.27;8.25;;;;;;;32.87;24.62;100106.06;5015808;28;20076;-78
2022/08/26 08:55:43;;;;;;;37.50;9.30;;;;;;;33.35;24.62;100096.34;5015495;28;20041;-77
2022/08/26 08:58:16;;;;;;;17.67;8.13;;;;;;;33.82;24.17;100102.31;5031963;28;20041;-76
2022/08/26 09:00:52;;;;;;;20.30;8.50;;;;;;;34.19;23.75;100100.84;5032065;28;20088;-77
2022/08/26 09:03:57;;;;;;;18.60;7.30;;;;;;;33.84;24.03;100105.66;5032132;28;20041;-78
2022/08/26 09:06:24;;;;;;;23.70;7.40;;;;;;;33.91;24.36;100093.53;5011587;28;20061;-78
2022/08/26 09:08:50;;;;;;;67.97;11.10;;;;;;;34.43;23.83;100095.84;5015394;28;20140;-78
2022/08/26 09:11:19;;;;;;;13.25;8.07;;;;;;;34.77;22.81;100079.81;5032032;28;20504;-77
2022/08/26 09:13:54;;;;;;;21.15;8.02;;;;;;;35.00;22.79;100084.19;5031036;28;20099;-76
2022/08/26 09:16:41;;;;;;;25.38;8.90;;;;;;;35.35;22.66;100083.59;5032938;28;20077;-76
2022/08/26 09:19:07;;;;;;;30.33;8.27;;;;;;;35.49;22.45;100062.59;5015313;28;20056;-76
2022/08/26 09:21:33;;;;;;;25.40;7.95;;;;;;;35.38;22.17;100085.84;4998879;28;20041;-76
2022/08/26 09:23:59;;;;;;;20.52;8.30;;;;;;;34.85;22.71;100070.16;5015187;28;20050;-76
2022/08/26 09:26:40;;;;;;;19.20;8.75;;;;;;;34.42;23.28;100056.16;5032831;28;20068;-76
2022/08/26 09:29:14;;;;;;;15.88;7.93;;;;;;;34.33;23.06;100082.69;5015274;28;20056;-77
2022/08/26 09:31:40;;;;;;;18.45;8.45;;;;;;;33.85;23.74;100078.75;5014680;28;20053;-76
2022/08/26 09:34:12;;;;;;;22.27;8.00;;;;;;;33.80;23.78;100070.38;5031103;28;20052;-77
2022/08/26 09:36:42;;;;;;;23.08;8.45;;;;;;;34.09;24.13;100062.72;5032667;28;20196;-76
2022/08/26 09:39:35;;;;;;;19.85;8.18;;;;;;;34.44;23.09;100081.69;4998798;28;20424;-77
2022/08/26 09:42:33;;;;;;;18.00;8.00;;;;;;;34.64;22.85;100074.69;5031369;28;20053;-76
2022/08/26 09:45:05;;;;;;;22.75;8.88;;;;;;;34.97;22.41;100057.75;5006467;28;20054;-76
2022/08/26 09:47:36;;;;;;;15.75;7.65;;;;;;;34.45;22.89;100071.41;4998500;28;20044;-76
2022/08/26 09:50:23;;;;;;;14.23;8.20;;;;;;;34.32;23.25;100069.91;5031347;28;20179;-75
2022/08/26 09:53:21;;;;;;;20.60;8.85;;;;;;;34.17;23.31;100065.03;4998422;28;20057;-76
2022/08/26 09:55:53;;;;;;;21.10;9.38;;;;;;;34.77;22.73;100065.94;5014655;28;20042;-78
2022/08/26 09:58:36;;;;;;;24.17;8.48;;;;;;;34.92;22.84;100056.88;5031346;28;20152;-77
2022/08/26 10:01:06;;;;;;;21.58;9.18;;;;;;;35.37;22.19;100061.94;4998955;28;20053;-76
2022/08/26 10:03:41;;;;;;;20.90;8.65;;;;;;;35.93;21.82;100053.91;5031200;28;20045;-77
2022/08/26 10:06:16;;;;;;;17.52;8.43;;;;;;;36.58;21.24;100054.34;5032568;28;20523;-76
2022/08/26 10:08:50;;;;;;;13.40;8.02;;;;;;;36.95;20.37;100048.53;5031276;28;20500;-78
2022/08/26 10:11:35;;;;;;;25.05;9.30;;;;;;;36.58;20.57;100047.97;5032528;28;20057;-76
2022/08/26 10:14:26;;;;;;;33.67;8.93;;;;;;;36.60;20.89;100051.31;4998059;28;20042;-77
2022/08/26 10:17:04;;;;;;;19.27;7.80;;;;;;;36.83;20.64;100045.19;4998296;28;20043;-76
2022/08/26 10:19:54;;;;;;;13.88;7.85;;;;;;;36.47;20.15;100031.22;5031552;28;20045;-77
2022/08/26 10:22:52;;;;;;;17.15;7.70;;;;;;;36.65;20.13;100037.38;4998211;28;20048;-77
2022/08/26 10:25:27;;;;;;;21.50;7.68;;;;;;;36.79;20.47;100037.66;5010729;28;20053;-79
2022/08/26 10:28:04;;;;;;;22.85;7.68;;;;;;;37.21;19.61;100040.13;5002126;28;20044;-77
2022/08/26 10:30:39;;;;;;;16.33;6.83;;;;;;;37.94;19.37;100039.63;5034998;28;20053;-77
2022/08/26 10:33:11;;;;;;;12.50;7.60;;;;;;;38.24;18.36;100024.66;5036391;28;20037;-76
2022/08/26 10:35:48;;;;;;;9.82;7.10;;;;;;;38.13;18.75;100028.63;5034715;28;20111;-77
2022/08/26 10:38:20;;;;;;;30.70;8.30;;;;;;;38.15;18.84;100026.41;5018532;28;20041;-76
2022/08/26 10:40:53;;;;;;;9.38;6.60;;;;;;;38.37;18.28;100023.22;5035023;28;20045;-77
2022/08/26 10:43:28;;;;;;;10.63;6.57;;;;;;;38.29;18.15;100021.84;5034828;28;20052;-77
2022/08/26 10:46:02;;;;;;;12.85;7.15;;;;;;;38.86;18.10;100023.09;5034870;28;20049;-77
2022/08/26 10:48:37;;;;;;;18.42;7.63;;;;;;;39.46;17.47;100016.34;5036361;28;20041;-76
2022/08/26 10:51:05;;;;;;;24.15;7.53;;;;;;;39.87;16.79;100022.28;5018563;28;20099;-77
2022/08/26 10:53:40;;;;;;;15.65;7.35;;;;;;;40.35;17.04;100010.13;5034426;28;20050;-77
2022/08/26 10:56:12;;;;;;;12.93;6.97;;;;;;;40.44;16.85;100011.09;5034470;28;20046;-76
2022/08/26 10:59:10;;;;;;;15.75;7.68;;;;;;;40.67;16.80;100018.59;5034495;28;20519;-77
2022/08/26 11:01:47;;;;;;;12.10;6.97;;;;;;;40.73;16.25;100013.69;5018098;28;20068;-76
2022/08/26 11:04:31;;;;;;;10.35;6.53;;;;;;;40.61;16.56;100008.59;5035770;28;20053;-77
2022/08/26 11:07:29;;;;;;;11.88;6.93;;;;;;;40.43;16.70;100010.25;5001675;28;20128;-76
2022/08/26 11:10:00;;;;;;;12.77;7.05;;;;;;;40.83;16.79;100005.13;5017832;28;20064;-76
2022/08/26 11:12:34;;;;;;;12.98;7.60;;;;;;;40.57;16.38;100001.94;5035400;28;20056;-76
2022/08/26 11:15:25;;;;;;;14.35;6.47;;;;;;;40.22;16.55;100001.34;5017881;28;20053;-77
2022/08/26 11:17:51;;;;;;;14.38;6.88;;;;;;;39.88;17.33;100007.16;4999334;28;20071;-77
2022/08/26 11:20:29;;;;;;;14.13;6.82;;;;;;;39.72;17.19;100003.75;5001338;28;20045;-76
2022/08/26 11:23:21;;;;;;;10.25;6.57;;;;;;;40.14;16.89;99993.66;5017486;28;20042;-78
2022/08/26 11:26:08;;;;;;;9.82;6.57;;;;;;;40.16;16.33;99999.75;5034323;28;20049;-77
2022/08/26 11:28:36;;;;;;;12.15;6.57;;;;;;;40.11;16.46;100005.41;5035433;28;20099;-77
2022/08/26 11:31:07;;;;;;;14.43;6.70;;;;;;;40.57;15.88;100004.72;5017439;28;20047;-76
2022/08/26 11:33:42;;;;;;;11.23;6.40;;;;;;;40.69;15.77;99996.66;5000898;28;20041;-76
2022/08/26 11:36:10;;;;;;;9.18;6.75;;;;;;;41.43;15.42;99995.88;5016961;28;20049;-76